sensor_id;sensor_type;location;lat;lon;timestamp;temperature;humidity
42147;DHT22;27815;43.410;11.852;2024-03-23T00:56:34;11.60;68.30
42147;DHT22;27815;43.410;11.852;2024-03-23T01:00:36;11.50;68.60
42147;DHT22;27815;43.410;11.852;2024-03-23T01:04:38;11.30;68.70
42147;DHT22;27815;43.410;11.852;2024-03-23T01:08:40;11.30;68.70
42147;DHT22;27815;43.410;11.852;2024-03-23T01:12:42;11.20;68.70
42147;DHT22;27815;43.410;11.852;2024-03-23T01:16:43;11.10;68.80
42147;DHT22;27815;43.410;11.852;2024-03-23T01:20:46;11.10;68.90
42147;DHT22;27815;43.410;11.852;2024-03-23T01:24:47;11.00;69.10
42147;DHT22;27815;43.410;11.852;2024-03-23T01:28:49;10.90;69.30
42147;DHT22;27815;43.410;11.852;2024-03-23T01:32:52;10.90;69.40
42147;DHT22;27815;43.410;11.852;2024-03-23T01:36:54;10.90;69.50
42147;DHT22;27815;43.410;11.852;2024-03-23T01:40:59;10.80;69.70
42147;DHT22;27815;43.410;11.852;2024-03-23T01:45:00;10.80;69.80
42147;DHT22;27815;43.410;11.852;2024-03-23T01:49:03;10.70;69.60
42147;DHT22;27815;43.410;11.852;2024-03-23T01:53:06;10.70;69.70
42147;DHT22;27815;43.410;11.852;2024-03-23T01:57:08;10.70;69.60
42147;DHT22;27815;43.410;11.852;2024-03-23T02:01:11;10.60;69.60
42147;DHT22;27815;43.410;11.852;2024-03-23T02:05:13;10.50;69.60
42147;DHT22;27815;43.410;11.852;2024-03-23T02:09:15;10.50;69.70
42147;DHT22;27815;43.410;11.852;2024-03-23T02:13:20;10.50;69.80
42147;DHT22;27815;43.410;11.852;2024-03-23T02:17:22;10.50;69.90
42147;DHT22;27815;43.410;11.852;2024-03-23T02:21:24;10.40;69.90
42147;DHT22;27815;43.410;11.852;2024-03-23T02:25:27;10.40;70.00
42147;DHT22;27815;43.410;11.852;2024-03-23T02:29:28;10.40;70.10
42147;DHT22;27815;43.410;11.852;2024-03-23T02:33:30;10.40;70.10
42147;DHT22;27815;43.410;11.852;2024-03-23T02:37:33;10.40;70.10
42147;DHT22;27815;43.410;11.852;2024-03-23T02:41:36;10.40;70.10
42147;DHT22;27815;43.410;11.852;2024-03-23T02:45:38;10.40;70.10
42147;DHT22;27815;43.410;11.852;2024-03-23T02:49:41;10.30;70.20
42147;DHT22;27815;43.410;11.852;2024-03-23T02:53:43;10.30;70.10
42147;DHT22;27815;43.410;11.852;2024-03-23T02:57:46;10.20;70.20
42147;DHT22;27815;43.410;11.852;2024-03-23T03:01:48;10.20;70.10
42147;DHT22;27815;43.410;11.852;2024-03-23T03:05:55;10.10;70.20
42147;DHT22;27815;43.410;11.852;2024-03-23T03:09:57;10.10;70.40
42147;DHT22;27815;43.410;11.852;2024-03-23T03:13:59;10.00;70.30
42147;DHT22;27815;43.410;11.852;2024-03-23T03:18:02;10.00;70.40
42147;DHT22;27815;43.410;11.852;2024-03-23T03:22:04;9.90;70.50
42147;DHT22;27815;43.410;11.852;2024-03-23T03:26:06;9.80;70.50
42147;DHT22;27815;43.410;11.852;2024-03-23T03:30:08;9.80;70.50
42147;DHT22;27815;43.410;11.852;2024-03-23T03:34:10;9.70;70.60
42147;DHT22;27815;43.410;11.852;2024-03-23T03:38:12;9.60;70.80
42147;DHT22;27815;43.410;11.852;2024-03-23T03:42:14;9.50;71.10
42147;DHT22;27815;43.410;11.852;2024-03-23T03:46:16;9.40;71.00
42147;DHT22;27815;43.410;11.852;2024-03-23T03:50:17;9.30;70.90
42147;DHT22;27815;43.410;11.852;2024-03-23T03:54:20;9.30;70.90
42147;DHT22;27815;43.410;11.852;2024-03-23T03:58:22;9.30;71.00
42147;DHT22;27815;43.410;11.852;2024-03-23T04:02:24;9.30;70.90
42147;DHT22;27815;43.410;11.852;2024-03-23T04:06:25;9.30;70.90
42147;DHT22;27815;43.410;11.852;2024-03-23T04:10:27;9.20;71.00
42147;DHT22;27815;43.410;11.852;2024-03-23T04:14:29;9.20;71.10
42147;DHT22;27815;43.410;11.852;2024-03-23T04:18:31;9.10;71.30
42147;DHT22;27815;43.410;11.852;2024-03-23T04:22:33;9.10;71.20
42147;DHT22;27815;43.410;11.852;2024-03-23T04:26:41;9.00;71.30
42147;DHT22;27815;43.410;11.852;2024-03-23T04:30:43;9.00;71.70
42147;DHT22;27815;43.410;11.852;2024-03-23T04:34:45;9.00;71.70
42147;DHT22;27815;43.410;11.852;2024-03-23T04:38:47;9.00;71.60
42147;DHT22;27815;43.410;11.852;2024-03-23T04:42:51;9.00;71.70
42147;DHT22;27815;43.410;11.852;2024-03-23T04:46:53;8.90;71.60
42147;DHT22;27815;43.410;11.852;2024-03-23T04:50:55;8.90;71.60
42147;DHT22;27815;43.410;11.852;2024-03-23T04:54:59;8.80;71.70
42147;DHT22;27815;43.410;11.852;2024-03-23T04:59:00;8.80;71.70
42147;DHT22;27815;43.410;11.852;2024-03-23T05:03:03;8.90;71.80
42147;DHT22;27815;43.410;11.852;2024-03-23T05:07:06;8.90;71.90
42147;DHT22;27815;43.410;11.852;2024-03-23T05:11:08;8.90;71.80
42147;DHT22;27815;43.410;11.852;2024-03-23T05:15:10;8.90;71.90
42147;DHT22;27815;43.410;11.852;2024-03-23T05:19:12;8.90;71.90
42147;DHT22;27815;43.410;11.852;2024-03-23T05:23:14;8.90;71.90
42147;DHT22;27815;43.410;11.852;2024-03-23T05:27:16;9.00;71.90
42147;DHT22;27815;43.410;11.852;2024-03-23T05:31:24;9.00;71.90
42147;DHT22;27815;43.410;11.852;2024-03-23T05:35:26;9.00;72.10
42147;DHT22;27815;43.410;11.852;2024-03-23T05:39:28;8.90;72.30
42147;DHT22;27815;43.410;11.852;2024-03-23T05:43:30;8.90;72.60
42147;DHT22;27815;43.410;11.852;2024-03-23T05:47:32;9.00;72.70
42147;DHT22;27815;43.410;11.852;2024-03-23T05:51:34;9.10;72.80
42147;DHT22;27815;43.410;11.852;2024-03-23T05:55:37;9.10;72.70
42147;DHT22;27815;43.410;11.852;2024-03-23T05:59:38;9.20;72.60
42147;DHT22;27815;43.410;11.852;2024-03-23T06:03:40;9.30;72.50
42147;DHT22;27815;43.410;11.852;2024-03-23T06:07:42;9.30;72.40
42147;DHT22;27815;43.410;11.852;2024-03-23T06:11:44;9.30;72.30
42147;DHT22;27815;43.410;11.852;2024-03-23T06:15:46;9.40;72.30
42147;DHT22;27815;43.410;11.852;2024-03-23T06:19:48;9.40;72.30
42147;DHT22;27815;43.410;11.852;2024-03-23T06:23:53;9.30;72.60
42147;DHT22;27815;43.410;11.852;2024-03-23T06:27:56;9.30;72.60
42147;DHT22;27815;43.410;11.852;2024-03-23T06:31:58;9.40;72.50
42147;DHT22;27815;43.410;11.852;2024-03-23T06:35:59;9.50;72.40
42147;DHT22;27815;43.410;11.852;2024-03-23T06:40:01;9.60;72.40
42147;DHT22;27815;43.410;11.852;2024-03-23T06:44:04;9.60;72.50
42147;DHT22;27815;43.410;11.852;2024-03-23T06:48:08;9.80;72.50
42147;DHT22;27815;43.410;11.852;2024-03-23T06:52:09;9.80;72.60
42147;DHT22;27815;43.410;11.852;2024-03-23T06:56:11;9.80;72.80
42147;DHT22;27815;43.410;11.852;2024-03-23T07:00:13;9.80;73.00
42147;DHT22;27815;43.410;11.852;2024-03-23T07:04:17;9.80;73.20
42147;DHT22;27815;43.410;11.852;2024-03-23T07:08:20;9.90;73.20
42147;DHT22;27815;43.410;11.852;2024-03-23T07:12:23;10.00;73.20
42147;DHT22;27815;43.410;11.852;2024-03-23T07:16:27;10.20;73.10
42147;DHT22;27815;43.410;11.852;2024-03-23T07:20:28;10.30;73.00
42147;DHT22;27815;43.410;11.852;2024-03-23T07:24:32;10.50;73.00
42147;DHT22;27815;43.410;11.852;2024-03-23T07:28:34;10.70;73.00
42147;DHT22;27815;43.410;11.852;2024-03-23T07:32:37;10.90;72.80
42147;DHT22;27815;43.410;11.852;2024-03-23T07:36:39;11.00;73.00
42147;DHT22;27815;43.410;11.852;2024-03-23T07:40:41;11.00;73.40
42147;DHT22;27815;43.410;11.852;2024-03-23T07:44:43;11.00;73.50
42147;DHT22;27815;43.410;11.852;2024-03-23T07:48:46;11.20;73.50
42147;DHT22;27815;43.410;11.852;2024-03-23T07:52:48;11.50;73.40
42147;DHT22;27815;43.410;11.852;2024-03-23T07:56:50;11.80;73.30
42147;DHT22;27815;43.410;11.852;2024-03-23T08:00:56;12.10;73.70
42147;DHT22;27815;43.410;11.852;2024-03-23T08:04:58;12.50;73.60
42147;DHT22;27815;43.410;11.852;2024-03-23T08:08:59;12.80;73.10
42147;DHT22;27815;43.410;11.852;2024-03-23T08:13:01;13.20;73.10
42147;DHT22;27815;43.410;11.852;2024-03-23T08:17:03;13.50;72.80
42147;DHT22;27815;43.410;11.852;2024-03-23T08:21:05;13.90;72.60
42147;DHT22;27815;43.410;11.852;2024-03-23T08:25:07;14.10;72.50
42147;DHT22;27815;43.410;11.852;2024-03-23T08:29:09;14.20;72.40
42147;DHT22;27815;43.410;11.852;2024-03-23T08:33:11;14.30;72.30
42147;DHT22;27815;43.410;11.852;2024-03-23T08:37:13;14.40;72.50
42147;DHT22;27815;43.410;11.852;2024-03-23T08:41:15;14.50;72.40
42147;DHT22;27815;43.410;11.852;2024-03-23T08:45:16;15.00;71.80
42147;DHT22;27815;43.410;11.852;2024-03-23T08:49:18;15.50;70.40
42147;DHT22;27815;43.410;11.852;2024-03-23T08:53:21;15.80;69.00
42147;DHT22;27815;43.410;11.852;2024-03-23T08:57:23;16.00;67.70
42147;DHT22;27815;43.410;11.852;2024-03-23T09:01:25;16.40;67.60
42147;DHT22;27815;43.410;11.852;2024-03-23T09:05:27;16.80;67.10
42147;DHT22;27815;43.410;11.852;2024-03-23T09:09:30;17.00;65.70
42147;DHT22;27815;43.410;11.852;2024-03-23T09:13:36;17.10;65.70
42147;DHT22;27815;43.410;11.852;2024-03-23T09:17:37;17.30;65.20
42147;DHT22;27815;43.410;11.852;2024-03-23T09:21:39;17.60;64.90
42147;DHT22;27815;43.410;11.852;2024-03-23T09:25:41;17.60;64.10
42147;DHT22;27815;43.410;11.852;2024-03-23T09:29:43;17.80;63.70
42147;DHT22;27815;43.410;11.852;2024-03-23T09:33:45;17.80;63.10
42147;DHT22;27815;43.410;11.852;2024-03-23T09:37:47;18.00;63.00
42147;DHT22;27815;43.410;11.852;2024-03-23T09:41:48;18.20;62.60
42147;DHT22;27815;43.410;11.852;2024-03-23T09:45:50;18.40;60.10
42147;DHT22;27815;43.410;11.852;2024-03-23T09:49:53;18.50;59.70
42147;DHT22;27815;43.410;11.852;2024-03-23T09:53:56;18.60;58.80
42147;DHT22;27815;43.410;11.852;2024-03-23T09:57:59;18.50;58.40
42147;DHT22;27815;43.410;11.852;2024-03-23T10:02:01;18.40;58.00
42147;DHT22;27815;43.410;11.852;2024-03-23T10:06:03;18.30;57.80
42147;DHT22;27815;43.410;11.852;2024-03-23T10:10:10;18.20;56.90
42147;DHT22;27815;43.410;11.852;2024-03-23T10:14:28;18.10;57.50
42147;DHT22;27815;43.410;11.852;2024-03-23T10:18:30;18.10;58.10
42147;DHT22;27815;43.410;11.852;2024-03-23T10:22:37;18.10;58.10
42147;DHT22;27815;43.410;11.852;2024-03-23T10:26:40;18.40;57.90
42147;DHT22;27815;43.410;11.852;2024-03-23T10:30:42;18.50;57.90
42147;DHT22;27815;43.410;11.852;2024-03-23T10:34:45;18.70;57.50
42147;DHT22;27815;43.410;11.852;2024-03-23T10:38:47;18.80;56.90
42147;DHT22;27815;43.410;11.852;2024-03-23T10:42:52;18.90;56.40
42147;DHT22;27815;43.410;11.852;2024-03-23T10:47:06;19.00;55.30
42147;DHT22;27815;43.410;11.852;2024-03-23T10:51:08;19.10;54.60
42147;DHT22;27815;43.410;11.852;2024-03-23T10:55:17;19.20;54.50
42147;DHT22;27815;43.410;11.852;2024-03-23T10:59:21;19.40;53.00
42147;DHT22;27815;43.410;11.852;2024-03-23T11:03:34;19.50;52.60
42147;DHT22;27815;43.410;11.852;2024-03-23T11:07:36;19.60;52.00
42147;DHT22;27815;43.410;11.852;2024-03-23T11:11:38;19.70;52.30
42147;DHT22;27815;43.410;11.852;2024-03-23T11:15:40;19.70;52.70
42147;DHT22;27815;43.410;11.852;2024-03-23T11:19:42;19.90;51.70
42147;DHT22;27815;43.410;11.852;2024-03-23T11:23:44;20.00;51.40
42147;DHT22;27815;43.410;11.852;2024-03-23T11:27:47;20.20;51.60
42147;DHT22;27815;43.410;11.852;2024-03-23T11:31:50;20.30;51.50
42147;DHT22;27815;43.410;11.852;2024-03-23T11:35:52;20.40;51.50
42147;DHT22;27815;43.410;11.852;2024-03-23T11:39:54;20.50;50.40
42147;DHT22;27815;43.410;11.852;2024-03-23T11:43:56;20.70;50.30
42147;DHT22;27815;43.410;11.852;2024-03-23T11:48:04;20.90;49.30
42147;DHT22;27815;43.410;11.852;2024-03-23T11:52:06;20.90;48.00
42147;DHT22;27815;43.410;11.852;2024-03-23T11:56:08;20.80;48.60
42147;DHT22;27815;43.410;11.852;2024-03-23T12:00:21;20.60;49.00
42147;DHT22;27815;43.410;11.852;2024-03-23T12:04:30;20.50;49.20
42147;DHT22;27815;43.410;11.852;2024-03-23T12:08:34;20.50;48.80
42147;DHT22;27815;43.410;11.852;2024-03-23T12:12:37;20.60;48.90
42147;DHT22;27815;43.410;11.852;2024-03-23T12:16:38;20.70;48.80
42147;DHT22;27815;43.410;11.852;2024-03-23T12:20:40;20.80;48.50
42147;DHT22;27815;43.410;11.852;2024-03-23T12:24:42;20.70;47.80
42147;DHT22;27815;43.410;11.852;2024-03-23T12:28:47;20.70;47.40
42147;DHT22;27815;43.410;11.852;2024-03-23T12:32:48;20.80;47.70
42147;DHT22;27815;43.410;11.852;2024-03-23T12:36:50;20.70;47.70
42147;DHT22;27815;43.410;11.852;2024-03-23T12:40:52;20.50;47.90
42147;DHT22;27815;43.410;11.852;2024-03-23T12:44:54;20.50;48.10
42147;DHT22;27815;43.410;11.852;2024-03-23T12:48:56;20.40;48.40
42147;DHT22;27815;43.410;11.852;2024-03-23T12:52:58;20.30;48.50
42147;DHT22;27815;43.410;11.852;2024-03-23T12:57:00;20.00;48.90
42147;DHT22;27815;43.410;11.852;2024-03-23T13:01:02;19.90;48.80
42147;DHT22;27815;43.410;11.852;2024-03-23T13:05:04;19.90;49.60
42147;DHT22;27815;43.410;11.852;2024-03-23T13:09:06;20.00;49.70
42147;DHT22;27815;43.410;11.852;2024-03-23T13:13:08;20.10;49.40
42147;DHT22;27815;43.410;11.852;2024-03-23T13:17:09;20.00;48.70
42147;DHT22;27815;43.410;11.852;2024-03-23T13:21:11;19.80;49.30
42147;DHT22;27815;43.410;11.852;2024-03-23T13:25:13;19.70;50.10
42147;DHT22;27815;43.410;11.852;2024-03-23T13:29:15;19.60;50.20
42147;DHT22;27815;43.410;11.852;2024-03-23T13:33:17;19.50;50.30
42147;DHT22;27815;43.410;11.852;2024-03-23T13:37:19;19.50;50.50
42147;DHT22;27815;43.410;11.852;2024-03-23T13:41:21;19.40;50.80
42147;DHT22;27815;43.410;11.852;2024-03-23T13:45:23;19.40;51.00
42147;DHT22;27815;43.410;11.852;2024-03-23T13:49:29;19.40;51.10
42147;DHT22;27815;43.410;11.852;2024-03-23T13:53:31;19.30;51.30
42147;DHT22;27815;43.410;11.852;2024-03-23T13:57:36;19.10;51.00
42147;DHT22;27815;43.410;11.852;2024-03-23T14:01:38;18.90;51.30
42147;DHT22;27815;43.410;11.852;2024-03-23T14:05:40;18.80;51.80
42147;DHT22;27815;43.410;11.852;2024-03-23T14:09:42;19.00;51.90
42147;DHT22;27815;43.410;11.852;2024-03-23T14:13:44;19.10;51.40
42147;DHT22;27815;43.410;11.852;2024-03-23T14:17:46;19.10;51.20
42147;DHT22;27815;43.410;11.852;2024-03-23T14:21:48;19.00;51.60
42147;DHT22;27815;43.410;11.852;2024-03-23T14:25:50;19.00;51.80
42147;DHT22;27815;43.410;11.852;2024-03-23T14:29:53;19.00;52.10
42147;DHT22;27815;43.410;11.852;2024-03-23T14:33:55;19.30;52.10
42147;DHT22;27815;43.410;11.852;2024-03-23T14:37:57;19.50;51.80
42147;DHT22;27815;43.410;11.852;2024-03-23T14:41:59;19.50;50.90
42147;DHT22;27815;43.410;11.852;2024-03-23T14:46:12;19.40;51.20
42147;DHT22;27815;43.410;11.852;2024-03-23T14:50:19;19.30;51.30
42147;DHT22;27815;43.410;11.852;2024-03-23T14:54:20;19.30;52.00
42147;DHT22;27815;43.410;11.852;2024-03-23T14:58:22;19.30;52.10
42147;DHT22;27815;43.410;11.852;2024-03-23T15:02:26;19.30;52.50
42147;DHT22;27815;43.410;11.852;2024-03-23T15:06:30;19.30;52.70
42147;DHT22;27815;43.410;11.852;2024-03-23T15:10:35;19.40;52.70
42147;DHT22;27815;43.410;11.852;2024-03-23T15:14:37;19.40;52.90
42147;DHT22;27815;43.410;11.852;2024-03-23T15:18:39;19.40;51.70
42147;DHT22;27815;43.410;11.852;2024-03-23T15:22:40;19.50;51.80
42147;DHT22;27815;43.410;11.852;2024-03-23T15:26:43;19.60;51.70
42147;DHT22;27815;43.410;11.852;2024-03-23T15:30:45;19.60;51.50
42147;DHT22;27815;43.410;11.852;2024-03-23T15:34:47;19.70;51.80
42147;DHT22;27815;43.410;11.852;2024-03-23T15:38:49;19.60;51.80
42147;DHT22;27815;43.410;11.852;2024-03-23T15:42:51;19.40;51.70
42147;DHT22;27815;43.410;11.852;2024-03-23T15:46:52;19.40;51.70
42147;DHT22;27815;43.410;11.852;2024-03-23T15:50:57;19.20;52.00
42147;DHT22;27815;43.410;11.852;2024-03-23T15:54:59;19.10;52.40
42147;DHT22;27815;43.410;11.852;2024-03-23T15:59:01;19.00;52.90
42147;DHT22;27815;43.410;11.852;2024-03-23T16:03:09;19.00;53.20
42147;DHT22;27815;43.410;11.852;2024-03-23T16:07:11;18.70;53.30
42147;DHT22;27815;43.410;11.852;2024-03-23T16:11:15;18.50;53.80
42147;DHT22;27815;43.410;11.852;2024-03-23T16:15:17;18.40;54.20
42147;DHT22;27815;43.410;11.852;2024-03-23T16:19:19;18.40;54.40
42147;DHT22;27815;43.410;11.852;2024-03-23T16:23:21;18.40;54.60
42147;DHT22;27815;43.410;11.852;2024-03-23T16:27:22;18.50;54.50
42147;DHT22;27815;43.410;11.852;2024-03-23T16:31:24;18.50;54.70
42147;DHT22;27815;43.410;11.852;2024-03-23T16:35:26;18.50;54.60
42147;DHT22;27815;43.410;11.852;2024-03-23T16:39:28;18.50;54.90
42147;DHT22;27815;43.410;11.852;2024-03-23T16:43:30;18.90;54.40
42147;DHT22;27815;43.410;11.852;2024-03-23T16:47:31;19.30;53.70
42147;DHT22;27815;43.410;11.852;2024-03-23T16:51:35;19.50;53.30
42147;DHT22;27815;43.410;11.852;2024-03-23T16:55:38;19.50;52.90
42147;DHT22;27815;43.410;11.852;2024-03-23T16:59:39;19.10;53.20
42147;DHT22;27815;43.410;11.852;2024-03-23T17:03:42;19.10;53.30
42147;DHT22;27815;43.410;11.852;2024-03-23T17:07:43;19.20;53.30
42147;DHT22;27815;43.410;11.852;2024-03-23T17:11:46;19.10;53.40
42147;DHT22;27815;43.410;11.852;2024-03-23T17:15:48;18.80;53.70
42147;DHT22;27815;43.410;11.852;2024-03-23T17:19:50;18.40;54.20
42147;DHT22;27815;43.410;11.852;2024-03-23T17:24:00;18.00;55.00
42147;DHT22;27815;43.410;11.852;2024-03-23T17:28:02;17.60;55.80
42147;DHT22;27815;43.410;11.852;2024-03-23T17:32:04;17.30;56.50
42147;DHT22;27815;43.410;11.852;2024-03-23T17:36:06;17.00;57.40
42147;DHT22;27815;43.410;11.852;2024-03-23T17:40:09;16.80;58.20
42147;DHT22;27815;43.410;11.852;2024-03-23T17:44:11;16.50;58.90
42147;DHT22;27815;43.410;11.852;2024-03-23T17:48:13;16.30;59.90
42147;DHT22;27815;43.410;11.852;2024-03-23T17:52:15;16.20;60.40
42147;DHT22;27815;43.410;11.852;2024-03-23T17:56:17;16.00;60.80
42147;DHT22;27815;43.410;11.852;2024-03-23T18:00:19;15.90;61.40
42147;DHT22;27815;43.410;11.852;2024-03-23T18:04:22;15.70;62.10
42147;DHT22;27815;43.410;11.852;2024-03-23T18:08:23;15.50;62.60
42147;DHT22;27815;43.410;11.852;2024-03-23T18:12:25;15.40;62.80
42147;DHT22;27815;43.410;11.852;2024-03-23T18:29:54;15.20;63.10
42147;DHT22;27815;43.410;11.852;2024-03-23T18:33:56;16.00;61.70
42147;DHT22;27815;43.410;11.852;2024-03-23T18:37:59;15.50;62.90
42147;DHT22;27815;43.410;11.852;2024-03-23T18:42:01;15.20;63.80
42147;DHT22;27815;43.410;11.852;2024-03-23T18:46:03;15.00;64.70
42147;DHT22;27815;43.410;11.852;2024-03-23T18:50:05;14.70;65.70
42147;DHT22;27815;43.410;11.852;2024-03-23T18:54:07;14.60;66.50
42147;DHT22;27815;43.410;11.852;2024-03-23T18:58:09;14.50;66.80
42147;DHT22;27815;43.410;11.852;2024-03-23T19:02:11;14.40;67.60
42147;DHT22;27815;43.410;11.852;2024-03-23T19:06:16;14.30;68.20
42147;DHT22;27815;43.410;11.852;2024-03-23T19:10:18;14.20;68.20
42147;DHT22;27815;43.410;11.852;2024-03-23T19:14:23;14.10;68.60
42147;DHT22;27815;43.410;11.852;2024-03-23T19:18:25;14.10;69.00
42147;DHT22;27815;43.410;11.852;2024-03-23T19:22:31;14.00;69.40
42147;DHT22;27815;43.410;11.852;2024-03-23T19:26:33;14.00;69.70
42147;DHT22;27815;43.410;11.852;2024-03-23T19:30:35;14.00;69.80
42147;DHT22;27815;43.410;11.852;2024-03-23T19:34:37;14.00;70.10
42147;DHT22;27815;43.410;11.852;2024-03-23T19:38:39;13.90;70.50
42147;DHT22;27815;43.410;11.852;2024-03-23T19:42:41;13.90;70.70
42147;DHT22;27815;43.410;11.852;2024-03-23T19:46:43;13.90;70.80
42147;DHT22;27815;43.410;11.852;2024-03-23T19:50:57;13.90;71.00
42147;DHT22;27815;43.410;11.852;2024-03-23T19:54:59;13.90;71.20
42147;DHT22;27815;43.410;11.852;2024-03-23T19:59:01;13.90;71.30
42147;DHT22;27815;43.410;11.852;2024-03-23T20:03:03;13.90;71.60
42147;DHT22;27815;43.410;11.852;2024-03-23T20:07:08;13.80;71.80
42147;DHT22;27815;43.410;11.852;2024-03-23T20:11:10;13.90;71.80
42147;DHT22;27815;43.410;11.852;2024-03-23T20:15:12;13.90;72.30
42147;DHT22;27815;43.410;11.852;2024-03-23T20:19:14;13.80;72.30
42147;DHT22;27815;43.410;11.852;2024-03-23T20:23:18;13.90;72.70
42147;DHT22;27815;43.410;11.852;2024-03-23T20:27:20;13.80;72.90
42147;DHT22;27815;43.410;11.852;2024-03-23T20:31:23;13.70;72.90
42147;DHT22;27815;43.410;11.852;2024-03-23T20:35:25;13.70;73.40
42147;DHT22;27815;43.410;11.852;2024-03-23T20:39:27;13.70;73.50
42147;DHT22;27815;43.410;11.852;2024-03-23T20:43:28;13.70;73.80
42147;DHT22;27815;43.410;11.852;2024-03-23T20:47:31;13.70;74.00
42147;DHT22;27815;43.410;11.852;2024-03-23T20:51:33;13.70;74.00
42147;DHT22;27815;43.410;11.852;2024-03-23T20:55:35;13.70;74.30
42147;DHT22;27815;43.410;11.852;2024-03-23T20:59:36;13.70;74.40
42147;DHT22;27815;43.410;11.852;2024-03-23T21:03:38;13.70;74.50
42147;DHT22;27815;43.410;11.852;2024-03-23T21:07:40;13.80;74.50
42147;DHT22;27815;43.410;11.852;2024-03-23T21:11:42;13.70;74.60
42147;DHT22;27815;43.410;11.852;2024-03-23T21:15:54;13.80;74.60
42147;DHT22;27815;43.410;11.852;2024-03-23T21:20:01;13.80;74.50
42147;DHT22;27815;43.410;11.852;2024-03-23T21:24:03;13.70;74.50
42147;DHT22;27815;43.410;11.852;2024-03-23T21:28:06;13.70;74.60
42147;DHT22;27815;43.410;11.852;2024-03-23T21:32:09;13.70;74.40
42147;DHT22;27815;43.410;11.852;2024-03-23T21:36:11;13.70;74.60
42147;DHT22;27815;43.410;11.852;2024-03-23T21:40:13;13.60;74.70
42147;DHT22;27815;43.410;11.852;2024-03-23T21:44:15;13.60;74.80
42147;DHT22;27815;43.410;11.852;2024-03-23T21:48:16;13.60;75.00
42147;DHT22;27815;43.410;11.852;2024-03-23T21:52:18;13.60;75.20
42147;DHT22;27815;43.410;11.852;2024-03-23T21:56:20;13.60;75.10
42147;DHT22;27815;43.410;11.852;2024-03-23T22:00:22;13.50;75.10
42147;DHT22;27815;43.410;11.852;2024-03-23T22:04:24;13.50;75.20
42147;DHT22;27815;43.410;11.852;2024-03-23T22:08:26;13.50;75.30
42147;DHT22;27815;43.410;11.852;2024-03-23T22:12:28;13.40;75.50
42147;DHT22;27815;43.410;11.852;2024-03-23T22:16:29;13.40;75.60
42147;DHT22;27815;43.410;11.852;2024-03-23T22:20:32;13.40;75.90
42147;DHT22;27815;43.410;11.852;2024-03-23T22:24:37;13.40;75.90
42147;DHT22;27815;43.410;11.852;2024-03-23T22:28:39;13.40;76.00
42147;DHT22;27815;43.410;11.852;2024-03-23T22:32:43;13.30;76.10
42147;DHT22;27815;43.410;11.852;2024-03-23T22:36:47;13.30;76.20
42147;DHT22;27815;43.410;11.852;2024-03-23T22:40:59;13.30;76.30
42147;DHT22;27815;43.410;11.852;2024-03-23T22:45:02;13.30;76.30
42147;DHT22;27815;43.410;11.852;2024-03-23T22:49:06;13.30;76.40
42147;DHT22;27815;43.410;11.852;2024-03-23T22:53:07;13.20;76.50
42147;DHT22;27815;43.410;11.852;2024-03-23T22:57:09;13.20;76.60
42147;DHT22;27815;43.410;11.852;2024-03-23T23:01:11;13.20;76.60
42147;DHT22;27815;43.410;11.852;2024-03-23T23:05:13;13.20;76.70
42147;DHT22;27815;43.410;11.852;2024-03-23T23:09:16;13.20;76.70
42147;DHT22;27815;43.410;11.852;2024-03-23T23:13:18;13.20;76.70
42147;DHT22;27815;43.410;11.852;2024-03-23T23:17:21;13.20;76.80
42147;DHT22;27815;43.410;11.852;2024-03-23T23:21:23;13.10;76.90
42147;DHT22;27815;43.410;11.852;2024-03-23T23:25:25;13.10;76.80
42147;DHT22;27815;43.410;11.852;2024-03-23T23:29:27;13.10;76.80
42147;DHT22;27815;43.410;11.852;2024-03-23T23:33:30;13.10;76.70
42147;DHT22;27815;43.410;11.852;2024-03-23T23:37:32;13.10;76.50
42147;DHT22;27815;43.410;11.852;2024-03-23T23:41:34;13.10;76.60
42147;DHT22;27815;43.410;11.852;2024-03-23T23:45:39;13.10;76.50
42147;DHT22;27815;43.410;11.852;2024-03-23T23:49:41;13.10;76.40
42147;DHT22;27815;43.410;11.852;2024-03-23T23:53:44;13.10;76.00
42147;DHT22;27815;43.410;11.852;2024-03-23T23:57:46;12.90;75.60
